VA33 weather

Beaver Dam Airpark
Surry, Virginia, United States

Public forecast

Using degrees Fahrenheit for public forecast. Weather courtesy of forecast.io.

Closest aviation weather report (METAR) to Beaver Dam Airpark

Closest report is Felker Army Air Field, 9.3 nm (17.2 km) NE. Retrieved 2020/08/05 23:59 UTC (43 minutes ago):

KFAF 052359Z 14004KT 10SM FEW060 BKN150 25/22 A3000 RMK LTG DSNT E DZB2255 TSB04E59 SLP162 P0000 T02520217 10315 20252 50003

Closest aviation forecast (TAF) to Beaver Dam Airpark

Forecast is more than 6 hours old.

Closest forecast is Felker Army Air Field, 9.3 nm (17.2 km) NE. Retrieved 2020/08/05 18:14 UTC (6 hours ago):

TAF KFAF 051800Z 0518/0624 VRB06KT 6000 -SHRA BKN030 QNH2996INS TEMPO 0519/0524 10012G18KT 4800 -TSRA BKN035CB BECMG 0600/0601 VRB06KT 9999 NSW FEW015 SCT025 BKN035 QNH3000INS BECMG 0608/0609 VRB06KT 4800 BR BKN005 QNH3001INS BECMG 0613/0614 12006KT 6000 -SHRA BKN025 QNH3003INS TEMPO 0618/0621 15012G18KT 4800 -TSRA BKN030CB TX29/0617Z TN24/0610Z LAST NO AMDS AFT 0523 NEXT 0610